Agate, CO

1:26 AM MDT on March 31, 2015 (GMT -0600)
Agate | | Change Station
CLOSE
Current Station
Personal Weather Station
Location: Agate, CO
Elevation: 5466 ft
Nearby Weather Stations

Elev 5466 ft 39.46 °N, 103.94 °W | Updated 11 minutes ago

Clear
Clear
40.1 °F
Feels Like 38 °F
N
3.2
Wind Variable Wind from South

Today
High -- | Low -- °F
--% Chance of Precip.
Yesterday
High -- | Low -- °F
Precip. -- in
6:42 AM 7:18 PM
Waxing Gibbous, 85% visible
Pressure 30.04 in
Visibility 10.0 miles
Clouds Clear
Windchill 38 °F
Dew Point 26 °F
Humidity 58%
Rainfall 0.00 in
Snow Depth Not available.
UV 0 out of 12
Pollen 11.80 out of 12
Air Quality Not available.
Flu Activity Not available.
METAR KLIC 310655Z AUTO 35006KT 10SM CLR 01/M04 A3014 RMK AO2 SLP172 T00061044 402221044

More Conditions Fewer Conditions

Pressure 30.04 in
Visibility 10.0 miles
Clouds Clear
Windchill 38 °F
Dew Point 26 °F
Humidity 58%
Rainfall 0.00 in
Snow Depth Not available.
UV 0 out of 12
Pollen 11.80 out of 12
Air Quality Not available.
Flu Activity Not available.
METAR KLIC 310655Z AUTO 35006KT 10SM CLR 01/M04 A3014 RMK AO2 SLP172 T00061044 402221044

More Conditions Fewer Conditions

10-Day Weather Forecast

Almanac

Astronomy

Mar. 31, 2015 Rise Set
Actual Time
Civil Twilight
Nautical Twilight
Astronomical Twilight
Moon
Length of Visible Light
Length of Day
Tomorrow will be .
, % of the Moon is Illuminated

Today's Extremes

State Highs State Lows

Community

WunderPhotos

Upload Photos

1,809,729 photos uploaded!

WunderBlogs® & News

Nearby

Air Quality

  Air Quality AQ Index Pollutant
Not available.

Snow Depth

Station Depth Elevation

Earthquake Activity

City Distance Mag. Time & Date
Minimum magnitude displayed is 2.5.

Coastal Water Temperatures

Place Temperature

Stations

Nearby Weather Stations

Station Location Temp. Windchill Dew Point Humidity Wind Precip. Elev Updated Type